createdAt,value
2019-05-14T00:02:05.499Z,100775.47
2019-05-14T00:04:39.448Z,100774.73
2019-05-14T00:07:13.647Z,100771.89
2019-05-14T00:10:14.694Z,100772.84
2019-05-14T00:13:01.676Z,100773.70
2019-05-14T00:15:34.508Z,100774.50
2019-05-14T00:18:06.457Z,100768.95
2019-05-14T00:20:38.190Z,100770.66
2019-05-14T00:23:11.885Z,100773.95
2019-05-14T00:25:44.060Z,100767.45
2019-05-14T00:28:15.930Z,100772.58
2019-05-14T00:30:48.879Z,100778.13
2019-05-14T00:33:22.594Z,100779.77
2019-05-14T00:35:56.972Z,100772.59
2019-05-14T00:38:28.697Z,100774.48
2019-05-14T00:41:01.975Z,100774.48
2019-05-14T00:43:36.117Z,100771.84
2019-05-14T00:46:08.139Z,100770.25
2019-05-14T00:48:42.037Z,100770.69
2019-05-14T00:51:13.588Z,100764.29
2019-05-14T00:53:47.003Z,100773.64
2019-05-14T00:56:21.572Z,100770.73
2019-05-14T00:58:54.882Z,100763.34
2019-05-14T01:01:28.693Z,100771.47
2019-05-14T01:04:01.266Z,100761.00
2019-05-14T01:06:35.022Z,100763.81
2019-05-14T01:09:11.277Z,100768.25
2019-05-14T01:11:42.589Z,100766.56
2019-05-14T01:14:15.053Z,100770.62
2019-05-14T01:16:51.530Z,100773.64
2019-05-14T01:19:23.344Z,100775.60
2019-05-14T01:21:55.373Z,100776.55
2019-05-14T01:24:27.213Z,100778.66
2019-05-14T01:27:01.436Z,100782.78
2019-05-14T01:29:32.465Z,100778.83
2019-05-14T01:32:04.296Z,100779.16
2019-05-14T01:34:35.973Z,100779.94
2019-05-14T01:37:07.786Z,100782.78
2019-05-14T01:39:41.799Z,100789.08
2019-05-14T01:42:12.966Z,100788.98
2019-05-14T01:44:44.761Z,100782.37
2019-05-14T01:47:16.573Z,100792.57
2019-05-14T01:49:51.313Z,100790.30
2019-05-14T01:52:22.849Z,100791.72
2019-05-14T01:54:54.598Z,100793.98
2019-05-14T01:57:26.477Z,100799.54
2019-05-14T01:59:58.296Z,100799.37
2019-05-14T02:02:31.324Z,100794.19
2019-05-14T02:05:03.121Z,100793.88
2019-05-14T02:07:34.929Z,100785.31
2019-05-14T02:10:07.485Z,100781.52
2019-05-14T02:12:39.287Z,100783.98
2019-05-14T02:15:12.017Z,100777.48
2019-05-14T02:17:44.292Z,100783.14
2019-05-14T02:20:16.061Z,100786.44
2019-05-14T02:22:48.899Z,100776.34
2019-05-14T02:25:21.676Z,100773.95
2019-05-14T02:27:55.735Z,100776.70
2019-05-14T02:30:41.372Z,100772.47
2019-05-14T02:33:03.842Z,100740.70
2019-05-14T02:35:35.621Z,100765.30
2019-05-14T02:38:10.345Z,100768.63
2019-05-14T02:40:40.860Z,100760.94
2019-05-14T02:43:12.643Z,100765.65
2019-05-14T02:46:00.803Z,100755.36
2019-05-14T02:48:20.227Z,100761.27
2019-05-14T02:50:51.452Z,100757.67
2019-05-14T02:53:23.304Z,100757.50
2019-05-14T02:55:55.064Z,100754.78
2019-05-14T02:58:31.061Z,100747.23
2019-05-14T03:01:02.908Z,100739.78
2019-05-14T03:03:34.767Z,100739.09
2019-05-14T03:06:10.403Z,100738.21
2019-05-14T03:08:52.225Z,100735.77
2019-05-14T03:15:20.471Z,100748.73
2019-05-14T03:18:20.017Z,100740.44
2019-05-14T03:31:51.913Z,100729.85
2019-05-14T03:37:35.609Z,100720.66
2019-05-14T03:40:25.586Z,100723.55
2019-05-14T03:56:49.890Z,100728.82
2019-05-14T03:59:28.843Z,100718.90
2019-05-14T04:06:04.201Z,100713.78
2019-05-14T04:19:24.990Z,100714.29
2019-05-14T04:23:00.060Z,100698.05
2019-05-14T04:25:45.255Z,100701.00
2019-05-14T04:28:39.019Z,100703.11
2019-05-14T04:31:45.233Z,100704.77
2019-05-14T04:34:35.028Z,100705.25
2019-05-14T04:37:41.268Z,100704.47
2019-05-14T04:44:19.183Z,100697.34
2019-05-14T05:00:45.690Z,100694.41
2019-05-14T05:03:19.925Z,100692.45
2019-05-14T05:09:39.752Z,100694.55
2019-05-14T05:16:02.212Z,100705.41
2019-05-14T05:18:52.529Z,100712.49
2019-05-14T05:22:02.750Z,100712.19
2019-05-14T05:24:48.318Z,100714.19
2019-05-14T05:27:29.634Z,100713.66
2019-05-14T05:30:29.519Z,100713.73
2019-05-14T05:33:50.331Z,100717.77
2019-05-14T05:36:38.026Z,100713.66
2019-05-14T05:39:30.848Z,100714.13
2019-05-14T05:42:38.339Z,100706.42
2019-05-14T05:49:07.892Z,100708.53
2019-05-14T05:52:10.219Z,100700.44
2019-05-14T05:55:14.670Z,100707.13
2019-05-14T05:58:05.687Z,100710.33
2019-05-14T06:00:49.969Z,100713.96
2019-05-14T06:06:50.257Z,100713.43
2019-05-14T06:09:28.897Z,100714.03
2019-05-14T06:12:03.231Z,100718.63
2019-05-14T06:14:35.008Z,100706.52
2019-05-14T06:17:08.629Z,100701.47
2019-05-14T06:19:40.276Z,100703.05
2019-05-14T06:22:35.451Z,100709.17
2019-05-14T06:25:11.235Z,100710.58
2019-05-14T06:27:49.460Z,100703.78
2019-05-14T06:30:43.453Z,100705.38
2019-05-14T06:33:16.019Z,100706.23
2019-05-14T06:36:03.913Z,100703.44
2019-05-14T06:38:43.152Z,100711.81
2019-05-14T06:41:18.830Z,100707.92
2019-05-14T06:44:39.330Z,100703.00
2019-05-14T06:47:29.364Z,100703.30
2019-05-14T06:50:04.891Z,100701.68
2019-05-14T06:52:42.935Z,100695.70
2019-05-14T06:55:51.987Z,100693.81
2019-05-14T06:58:58.453Z,100702.98
2019-05-14T07:01:38.422Z,100698.08
2019-05-14T07:04:29.115Z,100691.33
2019-05-14T07:07:04.912Z,100696.94
2019-05-14T07:09:41.167Z,100689.82
2019-05-14T07:12:50.843Z,100687.64
2019-05-14T07:15:45.296Z,100686.95
2019-05-14T07:18:55.365Z,100684.89
2019-05-14T07:21:35.529Z,100681.88
2019-05-14T07:24:28.484Z,100677.59
2019-05-14T07:27:09.732Z,100675.21
2019-05-14T07:29:52.223Z,100667.81
2019-05-14T07:32:31.642Z,100657.28
2019-05-14T07:35:13.597Z,100656.91
2019-05-14T07:38:00.134Z,100650.27
2019-05-14T07:40:34.077Z,100651.67
2019-05-14T07:43:12.233Z,100646.94
2019-05-14T07:45:45.004Z,100650.92
2019-05-14T07:48:20.679Z,100656.64
2019-05-14T07:50:52.610Z,100649.19
2019-05-14T07:53:36.254Z,100645.39
2019-05-14T07:56:09.870Z,100646.73
2019-05-14T07:58:49.424Z,100646.12
2019-05-14T08:01:28.145Z,100645.44
2019-05-14T08:04:11.286Z,100643.27
2019-05-14T08:06:48.608Z,100636.83
2019-05-14T08:09:32.289Z,100628.55
2019-05-14T08:12:12.907Z,100627.34
2019-05-14T08:15:10.939Z,100625.16
2019-05-14T08:17:28.356Z,100625.87
2019-05-14T08:20:02.650Z,100623.16
2019-05-14T08:22:34.314Z,100619.83
2019-05-14T08:25:09.832Z,100623.37
2019-05-14T08:27:41.629Z,100625.50
2019-05-14T08:30:15.030Z,100627.42
2019-05-14T08:32:49.488Z,100634.75
2019-05-14T08:35:21.299Z,100628.86
2019-05-14T08:38:05.586Z,100629.87
2019-05-14T08:40:29.141Z,100623.00
2019-05-14T08:43:02.283Z,100627.64
2019-05-14T08:45:33.963Z,100624.64
2019-05-14T08:48:05.587Z,100623.49
2019-05-14T08:50:38.978Z,100620.02
2019-05-14T08:53:10.594Z,100620.98
2019-05-14T08:55:42.253Z,100627.70
2019-05-14T08:58:14.368Z,100624.55
2019-05-14T09:00:48.328Z,100616.02
2019-05-14T09:03:19.794Z,100619.28
2019-05-14T09:05:51.525Z,100616.56
2019-05-14T09:08:28.464Z,100614.88
2019-05-14T09:11:00.641Z,100619.80
2019-05-14T09:13:32.351Z,100620.95
2019-05-14T09:16:09.276Z,100618.36
2019-05-14T09:18:44.955Z,100624.62
2019-05-14T09:21:20.639Z,100619.80
2019-05-14T09:23:59.170Z,100617.73
2019-05-14T09:26:33.792Z,100618.14
2019-05-14T09:29:19.555Z,100616.36
2019-05-14T09:31:39.749Z,100616.47
2019-05-14T09:34:11.363Z,100614.81
2019-05-14T09:36:45.061Z,100611.38
2019-05-14T09:39:18.791Z,100611.66
2019-05-14T09:41:51.107Z,100611.14
2019-05-14T09:44:24.779Z,100613.91
2019-05-14T09:46:56.452Z,100614.17
2019-05-14T09:49:30.279Z,100608.25
2019-05-14T09:52:04.776Z,100606.13
2019-05-14T09:54:40.165Z,100614.85
2019-05-14T09:57:10.955Z,100614.16
2019-05-14T09:59:42.569Z,100621.30
2019-05-14T10:02:14.189Z,100619.95
2019-05-14T10:04:49.082Z,100625.42
2019-05-14T10:07:19.666Z,100623.70
2019-05-14T10:09:51.332Z,100620.50
2019-05-14T10:12:22.916Z,100611.52
2019-05-14T10:14:54.485Z,100611.84
2019-05-14T10:17:28.984Z,100608.06
2019-05-14T10:19:59.633Z,100611.38
2019-05-14T10:22:31.505Z,100608.84
2019-05-14T10:25:05.104Z,100606.39
2019-05-14T10:27:36.830Z,100606.49
2019-05-14T10:30:10.674Z,100598.20
2019-05-14T10:32:42.845Z,100593.77
2019-05-14T10:35:16.005Z,100591.77
2019-05-14T10:37:49.256Z,100591.56
2019-05-14T10:40:21.863Z,100588.75
2019-05-14T10:42:53.857Z,100595.31
2019-05-14T10:45:25.557Z,100598.71
2019-05-14T10:47:59.586Z,100601.45
2019-05-14T10:50:32.693Z,100596.19
2019-05-14T10:53:05.234Z,100590.23
2019-05-14T10:55:38.601Z,100593.81
2019-05-14T10:58:11.618Z,100586.50
2019-05-14T11:00:44.348Z,100597.50
2019-05-14T11:03:20.239Z,100595.18
2019-05-14T11:05:51.891Z,100600.15
2019-05-14T11:08:23.530Z,100603.05
2019-05-14T11:10:55.246Z,100597.64
2019-05-14T11:13:29.211Z,100587.27
2019-05-14T11:16:00.591Z,100586.14
2019-05-14T11:18:32.137Z,100595.58
2019-05-14T11:21:18.719Z,100599.69
2019-05-14T11:23:38.799Z,100595.63
2019-05-14T11:26:13.228Z,100600.56
2019-05-14T11:28:48.993Z,100601.22
2019-05-14T11:31:23.351Z,100602.40
2019-05-14T11:34:00.100Z,100603.11
2019-05-14T11:36:31.739Z,100601.56
2019-05-14T11:39:04.165Z,100601.39
2019-05-14T11:41:38.713Z,100596.72
2019-05-14T11:44:09.582Z,100598.74
2019-05-14T11:46:51.018Z,100594.94
2019-05-14T11:49:14.726Z,100587.90
2019-05-14T11:52:00.573Z,100591.86
2019-05-14T11:54:22.823Z,100590.66
2019-05-14T11:56:53.062Z,100581.47
2019-05-14T11:59:24.852Z,100580.32
2019-05-14T12:01:59.251Z,100579.31
2019-05-14T12:04:29.994Z,100575.11
2019-05-14T12:07:02.665Z,100578.04
2019-05-14T12:09:38.882Z,100576.06
2019-05-14T12:12:12.480Z,100570.91
2019-05-14T12:14:43.394Z,100576.73
2019-05-14T12:17:14.973Z,100570.94
2019-05-14T12:19:48.432Z,100572.81
2019-05-14T12:22:19.973Z,100576.06
2019-05-14T12:24:51.643Z,100579.44
2019-05-14T12:27:24.211Z,100571.34
2019-05-14T12:29:55.863Z,100571.88
2019-05-14T12:32:29.577Z,100566.05
2019-05-14T12:35:04.562Z,100562.39
2019-05-14T12:37:38.442Z,100565.30
2019-05-14T12:40:09.821Z,100566.02
2019-05-14T12:42:41.976Z,100566.09
2019-05-14T12:45:14.249Z,100558.70
2019-05-14T12:47:45.890Z,100561.64
2019-05-14T12:50:17.843Z,100560.29
2019-05-14T12:52:49.494Z,100560.34
2019-05-14T12:55:21.072Z,100561.90
2019-05-14T12:57:54.407Z,100555.77
2019-05-14T13:00:26.529Z,100555.80
2019-05-14T13:02:58.637Z,100551.66
2019-05-14T13:05:30.520Z,100556.90
2019-05-14T13:08:02.195Z,100560.20
2019-05-14T13:10:33.948Z,100551.30
2019-05-14T13:13:08.442Z,100553.48
2019-05-14T13:15:40.067Z,100554.53
2019-05-14T13:18:11.742Z,100549.49
2019-05-14T13:20:43.439Z,100549.47
2019-05-14T13:23:18.427Z,100544.48
2019-05-14T13:25:50.587Z,100540.53
2019-05-14T13:28:22.432Z,100549.94
2019-05-14T13:30:54.140Z,100549.16
2019-05-14T13:33:28.326Z,100547.34
2019-05-14T13:35:59.883Z,100550.45
2019-05-14T13:38:33.853Z,100539.52
2019-05-14T13:41:05.371Z,100538.23
2019-05-14T13:43:39.087Z,100542.11
2019-05-14T13:46:14.399Z,100547.09
2019-05-14T13:48:43.925Z,100546.77
2019-05-14T13:51:15.572Z,100546.14
2019-05-14T13:53:49.635Z,100538.68
2019-05-14T13:56:20.577Z,100541.08
2019-05-14T13:58:52.085Z,100541.69
2019-05-14T14:01:23.768Z,100537.86
2019-05-14T14:04:06.967Z,100536.98
2019-05-14T14:06:28.874Z,100535.67
2019-05-14T14:09:00.689Z,100532.13
2019-05-14T14:11:35.426Z,100528.27
2019-05-14T14:14:08.986Z,100531.41
2019-05-14T14:16:42.038Z,100527.98
2019-05-14T14:19:13.780Z,100539.04
2019-05-14T14:21:45.563Z,100538.57
2019-05-14T14:24:19.706Z,100533.70
2019-05-14T14:26:51.130Z,100532.34
2019-05-14T14:29:22.829Z,100529.56
2019-05-14T14:31:55.953Z,100529.02
2019-05-14T14:34:29.025Z,100526.19
2019-05-14T14:37:01.045Z,100530.99
2019-05-14T14:39:34.748Z,100535.70
2019-05-14T14:42:06.459Z,100533.70
2019-05-14T14:44:39.334Z,100537.67
2019-05-14T14:47:11.528Z,100539.00
2019-05-14T14:49:44.130Z,100539.62
2019-05-14T14:52:19.959Z,100546.52
2019-05-14T14:54:51.859Z,100542.66
2019-05-14T14:57:30.064Z,100545.77
2019-05-14T15:00:00.797Z,100541.73
2019-05-14T15:02:32.625Z,100544.89
2019-05-14T15:05:12.782Z,100548.42
2019-05-14T15:07:41.347Z,100550.59
2019-05-14T15:10:19.128Z,100544.00
2019-05-14T15:12:51.462Z,100551.44
2019-05-14T15:15:24.413Z,100549.20
2019-05-14T15:17:56.205Z,100557.14
2019-05-14T15:20:28.974Z,100554.70
2019-05-14T15:23:00.754Z,100557.26
2019-05-14T15:25:32.305Z,100555.75
2019-05-14T15:28:04.064Z,100560.86
2019-05-14T15:30:39.894Z,100558.28
2019-05-14T15:33:11.870Z,100561.74
2019-05-14T15:35:43.613Z,100556.19
2019-05-14T15:38:15.357Z,100557.45
2019-05-14T15:40:48.839Z,100554.50
2019-05-14T15:43:20.860Z,100561.84
2019-05-14T15:45:53.902Z,100562.37
2019-05-14T15:48:25.655Z,100561.72
2019-05-14T15:51:00.005Z,100561.58
2019-05-14T15:53:31.220Z,100565.29
2019-05-14T15:56:02.849Z,100561.48
2019-05-14T15:58:34.495Z,100558.13
2019-05-14T16:01:10.048Z,100564.89
2019-05-14T16:03:41.727Z,100572.02
2019-05-14T16:06:13.657Z,100565.16
2019-05-14T16:08:45.246Z,100568.19
2019-05-14T16:11:18.680Z,100565.71
2019-05-14T16:13:50.601Z,100568.40
2019-05-14T16:16:22.523Z,100567.72
2019-05-14T16:18:57.903Z,100571.78
2019-05-14T16:21:29.922Z,100567.92
2019-05-14T16:24:03.571Z,100566.09
2019-05-14T16:26:37.215Z,100567.44
2019-05-14T16:29:12.595Z,100568.44
2019-05-14T16:31:43.891Z,100564.73
2019-05-14T16:34:18.024Z,100565.91
2019-05-14T16:36:49.206Z,100567.05
2019-05-14T16:39:20.989Z,100568.41
2019-05-14T16:41:52.769Z,100570.75
2019-05-14T16:44:24.393Z,100566.37
2019-05-14T16:46:58.703Z,100566.39
2019-05-14T16:49:33.855Z,100561.86
2019-05-14T16:52:04.243Z,100566.88
2019-05-14T16:54:35.822Z,100563.03
2019-05-14T16:57:11.162Z,100566.05
2019-05-14T16:59:41.197Z,100561.34
2019-05-14T17:02:14.374Z,100566.22
2019-05-14T17:04:48.335Z,100572.38
2019-05-14T17:07:19.909Z,100576.37
2019-05-14T17:09:51.493Z,100581.98
2019-05-14T17:12:24.191Z,100592.47
2019-05-14T17:14:58.555Z,100593.65
2019-05-14T17:17:29.283Z,100595.95
2019-05-14T17:20:08.267Z,100604.95
2019-05-14T17:22:40.101Z,100603.19
2019-05-14T17:25:26.050Z,100595.22
2019-05-14T17:27:45.507Z,100605.94
2019-05-14T17:30:18.291Z,100614.81
2019-05-14T17:32:50.510Z,100617.55
2019-05-14T17:35:22.496Z,100611.41
2019-05-14T17:37:54.567Z,100611.78
2019-05-14T17:40:28.210Z,100615.97
2019-05-14T17:43:00.374Z,100613.30
2019-05-14T17:45:32.491Z,100617.86
2019-05-14T17:48:04.687Z,100614.97
2019-05-14T17:50:38.412Z,100613.96
2019-05-14T17:53:10.695Z,100618.86
2019-05-14T17:55:47.441Z,100619.27
2019-05-14T17:58:18.887Z,100625.30
2019-05-14T18:00:50.762Z,100627.02
2019-05-14T18:03:22.915Z,100623.34
2019-05-14T18:05:57.676Z,100630.45
2019-05-14T18:08:32.081Z,100624.59
2019-05-14T18:11:03.720Z,100612.79
2019-05-14T18:13:39.004Z,100610.73
2019-05-14T18:16:11.802Z,100620.61
2019-05-14T18:18:50.218Z,100617.14
2019-05-14T18:21:23.065Z,100618.33
2019-05-14T18:23:58.529Z,100620.31
2019-05-14T18:26:32.137Z,100627.88
2019-05-14T18:29:04.624Z,100626.87
2019-05-14T18:31:44.223Z,100625.67
2019-05-14T18:34:13.767Z,100619.30
2019-05-14T18:36:48.975Z,100627.64
2019-05-14T18:39:21.397Z,100632.74
2019-05-14T18:42:00.308Z,100631.64
2019-05-14T18:44:29.829Z,100633.86
2019-05-14T18:47:01.681Z,100636.08
2019-05-14T18:49:33.439Z,100635.34
2019-05-14T18:52:05.340Z,100639.45
2019-05-14T18:54:38.781Z,100642.41
2019-05-14T18:57:12.134Z,100641.55
2019-05-14T18:59:49.331Z,100645.72
2019-05-14T19:02:23.430Z,100642.70
2019-05-14T19:04:55.363Z,100640.14
2019-05-14T19:07:28.703Z,100645.58
2019-05-14T19:10:00.711Z,100647.95
2019-05-14T19:12:34.633Z,100649.08
2019-05-14T19:15:08.865Z,100645.53
2019-05-14T19:17:41.012Z,100643.15
2019-05-14T19:20:16.433Z,100639.59
2019-05-14T19:22:49.148Z,100639.30
2019-05-14T19:25:20.934Z,100637.27
2019-05-14T19:27:58.166Z,100639.94
2019-05-14T19:30:32.203Z,100644.88
2019-05-14T19:33:08.512Z,100634.55
2019-05-14T19:35:41.505Z,100642.84
2019-05-14T19:38:13.231Z,100646.14
2019-05-14T19:40:45.583Z,100646.20
2019-05-14T19:43:21.291Z,100645.64
2019-05-14T19:45:52.971Z,100643.67
2019-05-14T19:48:24.791Z,100645.22
2019-05-14T19:50:58.459Z,100643.39
2019-05-14T19:53:30.146Z,100639.88
2019-05-14T19:56:02.581Z,100639.19
2019-05-14T19:58:34.612Z,100636.31
2019-05-14T20:01:09.099Z,100630.14
2019-05-14T20:03:40.364Z,100635.69
2019-05-14T20:06:12.071Z,100637.89
2019-05-14T20:08:49.388Z,100637.79
2019-05-14T20:11:25.856Z,100635.19
2019-05-14T20:13:59.089Z,100635.53
2019-05-14T20:16:31.206Z,100629.16
2019-05-14T20:19:03.009Z,100616.67
2019-05-14T20:21:34.783Z,100614.50
2019-05-14T20:24:08.007Z,100622.50
2019-05-14T20:26:41.013Z,100631.47
2019-05-14T20:29:12.803Z,100631.81
2019-05-14T20:31:48.260Z,100634.28
2019-05-14T20:34:20.283Z,100634.30
2019-05-14T20:36:52.104Z,100637.49
2019-05-14T20:39:23.920Z,100638.76
2019-05-14T20:41:55.616Z,100631.93
2019-05-14T20:44:27.960Z,100633.13
2019-05-14T20:47:00.029Z,100639.97
2019-05-14T20:49:31.861Z,100637.97
2019-05-14T20:52:03.519Z,100637.44
2019-05-14T20:54:35.361Z,100644.80
2019-05-14T20:57:22.619Z,100638.27
2019-05-14T20:59:40.689Z,100640.03
2019-05-14T21:02:12.330Z,100636.06
2019-05-14T21:04:44.096Z,100642.23
2019-05-14T21:07:15.808Z,100642.30
2019-05-14T21:09:49.267Z,100642.23
2019-05-14T21:12:21.272Z,100647.52
2019-05-14T21:14:52.953Z,100650.98
2019-05-14T21:23:05.290Z,100648.97
2019-05-14T21:25:38.725Z,100655.77
2019-05-14T21:28:10.519Z,100647.16
2019-05-14T21:30:42.841Z,100656.34
2019-05-14T21:33:14.585Z,100652.62
2019-05-14T21:35:48.368Z,100654.91
2019-05-14T21:38:19.604Z,100651.89
2019-05-14T21:40:52.829Z,100649.38
2019-05-14T21:43:24.622Z,100652.14
2019-05-14T21:45:58.509Z,100650.09
2019-05-14T21:48:32.450Z,100650.45
2019-05-14T21:51:05.505Z,100646.16
2019-05-14T21:53:40.815Z,100647.55
2019-05-14T21:56:10.506Z,100644.37
2019-05-14T21:58:42.272Z,100640.13
2019-05-14T22:01:14.686Z,100636.13
2019-05-14T22:03:48.483Z,100642.32
2019-05-14T22:06:19.785Z,100635.52
2019-05-14T22:08:51.429Z,100633.84
2019-05-14T22:11:23.222Z,100626.30
2019-05-14T22:13:54.999Z,100632.38
2019-05-14T22:16:28.089Z,100630.25
2019-05-14T22:19:00.143Z,100634.02
2019-05-14T22:21:31.819Z,100631.98
2019-05-14T22:24:03.564Z,100636.33
2019-05-14T22:26:35.217Z,100636.23
2019-05-14T22:29:08.331Z,100635.14
2019-05-14T22:31:40.543Z,100643.86
2019-05-14T22:34:12.239Z,100637.83
2019-05-14T22:36:43.939Z,100636.37
2019-05-14T22:39:15.577Z,100634.20
2019-05-14T22:41:47.305Z,100640.96
2019-05-14T22:44:18.921Z,100649.30
2019-05-14T22:46:54.179Z,100646.28
2019-05-14T22:49:28.336Z,100640.83
2019-05-14T22:51:59.308Z,100641.92
2019-05-14T22:54:31.058Z,100636.12
2019-05-14T22:57:02.832Z,100636.25
2019-05-14T22:59:34.477Z,100638.55
2019-05-14T23:02:08.397Z,100639.02
2019-05-14T23:04:39.789Z,100634.32
2019-05-14T23:07:11.624Z,100643.75
2019-05-14T23:09:43.251Z,100641.67
2019-05-14T23:12:14.932Z,100648.68
2019-05-14T23:14:48.699Z,100649.19
2019-05-14T23:17:19.967Z,100643.13
2019-05-14T23:19:51.626Z,100641.69
2019-05-14T23:22:23.355Z,100639.14
2019-05-14T23:24:55.186Z,100641.57
2019-05-14T23:27:29.215Z,100636.96
2019-05-14T23:30:00.342Z,100629.98
2019-05-14T23:32:32.184Z,100629.23
2019-05-14T23:35:04.884Z,100634.28
2019-05-14T23:37:36.698Z,100631.39
2019-05-14T23:40:08.663Z,100638.77
2019-05-14T23:42:40.523Z,100636.45
2019-05-14T23:45:13.550Z,100631.48
2019-05-14T23:47:49.162Z,100633.08
2019-05-14T23:50:20.453Z,100630.17
2019-05-14T23:52:52.500Z,100630.45
2019-05-14T23:55:24.245Z,100628.03
2019-05-14T23:57:56.001Z,100629.25
